Time;durP1;ratioP1;P1;durP2;ratioP2;P2;SDS_P1;SDS_P2;PMS_P1;PMS_P2;Temp;Humidity;BMP_temperature;BMP_pressure;BME280_temperature;BME280_humidity;BME280_pressure;Samples;Min_cycle;Max_cycle;Signal;HPM_P1;HPM_P2
2023/10/10 00:01:17;;;;;;;13.93;3.22;;;16.00;99.90;;;;;;5028753;28;20501;-70
2023/10/10 00:03:45;;;;;;;8.30;2.20;;;16.00;99.90;;;;;;5025405;28;20395;-70
2023/10/10 00:06:13;;;;;;;11.18;2.10;;;15.90;99.90;;;;;;5028349;28;20422;-70
2023/10/10 00:08:46;;;;;;;10.90;2.38;;;15.90;99.90;;;;;;5029693;28;20441;-70
2023/10/10 00:11:19;;;;;;;10.32;2.40;;;15.90;99.90;;;;;;5021995;28;20928;-70
2023/10/10 00:13:46;;;;;;;10.77;2.40;;;16.00;99.90;;;;;;5029631;28;20431;-70
2023/10/10 00:16:20;;;;;;;8.82;2.05;;;16.00;99.90;;;;;;5012617;28;20392;-70
2023/10/10 00:18:46;;;;;;;7.35;2.00;;;16.00;99.90;;;;;;5028466;28;20439;-70
2023/10/10 00:21:34;;;;;;;9.85;2.38;;;16.00;99.90;;;;;;5028700;28;20526;-70
2023/10/10 00:23:59;;;;;;;8.80;1.53;;;15.90;99.90;;;;;;5029793;28;20765;-70
2023/10/10 00:26:26;;;;;;;8.93;2.60;;;15.90;99.90;;;;;;5029248;28;20449;-70
2023/10/10 00:28:55;;;;;;;9.82;2.83;;;15.90;99.90;;;;;;5027934;28;20410;-70
2023/10/10 00:31:22;;;;;;;12.48;2.30;;;15.90;99.90;;;;;;5024862;28;20412;-70
2023/10/10 00:33:51;;;;;;;8.60;2.00;;;15.80;99.90;;;;;;5016636;28;20433;-70
2023/10/10 00:36:21;;;;;;;13.33;2.97;;;15.80;99.90;;;;;;5029151;28;20494;-70
2023/10/10 00:38:49;;;;;;;11.50;2.60;;;15.90;99.90;;;;;;5028933;28;20465;-70
2023/10/10 00:41:15;;;;;;;9.45;2.60;;;16.00;99.90;;;;;;5029301;28;20419;-70
2023/10/10 00:43:41;;;;;;;15.30;2.87;;;16.00;99.90;;;;;;5028971;28;21099;-70
2023/10/10 00:46:11;;;;;;;9.63;2.88;;;16.00;99.90;;;;;;5029353;28;20505;-70
2023/10/10 00:48:38;;;;;;;9.77;2.20;;;15.90;77.70;;;;;;5029175;28;20490;-70
2023/10/10 00:51:10;;;;;;;11.65;2.90;;;15.80;99.90;;;;;;5029088;28;20395;-70
2023/10/10 00:53:39;;;;;;;11.43;2.42;;;15.80;99.90;;;;;;5029013;28;20507;-70
2023/10/10 00:56:06;;;;;;;10.80;3.35;;;15.70;99.90;;;;;;5029047;28;20395;-70
2023/10/10 00:58:36;;;;;;;10.00;2.30;;;15.60;99.90;;;;;;5029171;28;20398;-70
2023/10/10 01:01:14;;;;;;;9.20;2.47;;;15.60;99.90;;;;;;5028943;28;20476;-70
2023/10/10 01:03:42;;;;;;;10.38;2.75;;;15.50;99.90;;;;;;5029026;28;20437;-70
2023/10/10 01:06:20;;;;;;;7.70;2.10;;;15.50;99.90;;;;;;5027777;28;20875;-70
2023/10/10 01:09:03;;;;;;;6.50;1.90;;;15.50;99.90;;;;;;5028875;28;20399;-70
2023/10/10 01:11:29;;;;;;;9.68;2.20;;;15.40;99.90;;;;;;5028016;28;20782;-70
2023/10/10 01:13:56;;;;;;;8.30;2.10;;;15.30;1.00;;;;;;5032371;28;20407;-70
2023/10/10 01:16:23;;;;;;;12.48;2.20;;;15.30;1.00;;;;;;5032620;28;20406;-70
2023/10/10 01:18:54;;;;;;;7.22;2.22;;;15.30;99.90;;;;;;5032535;28;20888;-71
2023/10/10 01:21:57;;;;;;;9.80;2.67;;;15.30;1.00;;;;;;5032803;28;20426;-71
2023/10/10 01:24:17;;;;;;;9.05;2.10;;;15.20;99.90;;;;;;5031753;28;20441;-71
2023/10/10 01:26:47;;;;;;;10.40;2.20;;;15.10;1.00;;;;;;5032813;28;20430;-71
2023/10/10 01:29:21;;;;;;;7.50;1.60;;;15.10;1.00;;;;;;5033159;28;20898;-71
2023/10/10 01:31:48;;;;;;;10.00;1.70;;;15.20;1.00;;;;;;5033423;28;20410;-71
2023/10/10 01:34:30;;;;;;;9.02;2.15;;;15.10;1.00;;;;;;5033786;28;20399;-71
2023/10/10 01:37:00;;;;;;;9.55;2.80;;;15.10;1.00;;;;;;5033218;28;20419;-71
2023/10/10 01:39:41;;;;;;;10.10;2.80;;;15.00;1.00;;;;;;5032395;28;20408;-71
2023/10/10 01:42:12;;;;;;;9.57;3.10;;;15.00;99.90;;;;;;5024472;28;20904;-71
2023/10/10 01:44:38;;;;;;;11.60;3.50;;;14.90;1.00;;;;;;5032861;28;20435;-71
2023/10/10 01:47:09;;;;;;;14.52;2.30;;;14.80;99.90;;;;;;5032631;28;20435;-71
2023/10/10 01:49:35;;;;;;;9.90;3.05;;;14.80;99.90;;;;;;5032341;28;20395;-71
2023/10/10 01:52:05;;;;;;;7.65;1.58;;;14.70;99.90;;;;;;5032222;28;20399;-72
2023/10/10 01:54:40;;;;;;;9.95;2.83;;;14.80;99.90;;;;;;5032473;28;20399;-71
2023/10/10 01:57:07;;;;;;;9.70;2.00;;;15.00;90.80;;;;;;5014452;28;20404;-71
2023/10/10 01:59:35;;;;;;;10.23;3.10;;;14.90;99.90;;;;;;5012793;28;20397;-71
2023/10/10 02:02:07;;;;;;;9.90;2.55;;;14.90;99.90;;;;;;5018148;28;20427;-71
2023/10/10 02:04:35;;;;;;;11.73;3.13;;;14.90;1.00;;;;;;5031382;28;20391;-71
2023/10/10 02:07:05;;;;;;;8.88;2.95;;;14.90;1.00;;;;;;5032648;28;20434;-71
2023/10/10 02:09:33;;;;;;;13.03;2.90;;;15.00;99.90;;;;;;5025500;28;20416;-71
2023/10/10 02:12:08;;;;;;;10.73;1.98;;;14.90;99.90;;;;;;5012912;28;20385;-71
2023/10/10 02:14:34;;;;;;;8.93;2.22;;;14.70;1.00;;;;;;5026670;28;20890;-71
2023/10/10 02:17:08;;;;;;;8.02;1.60;;;14.70;1.00;;;;;;5031888;28;20901;-71
2023/10/10 02:19:39;;;;;;;10.32;2.75;;;14.80;1.00;;;;;;5031671;28;20422;-71
2023/10/10 02:22:33;;;;;;;10.90;2.78;;;14.70;1.00;;;;;;5031188;28;20431;-71
2023/10/10 02:25:46;;;;;;;12.23;3.47;;;14.70;99.90;;;;;;5030246;28;20407;-71
2023/10/10 02:27:56;;;;;;;16.27;2.45;;;14.80;99.90;;;;;;5031075;28;20941;-71
2023/10/10 02:30:35;;;;;;;6.53;2.05;;;14.80;1.00;;;;;;5031586;28;20923;-71
2023/10/10 02:33:17;;;;;;;8.20;1.98;;;14.80;1.00;;;;;;5031700;28;20395;-71
2023/10/10 02:36:02;;;;;;;8.32;2.63;;;14.70;99.90;;;;;;5013420;28;20408;-71
2023/10/10 02:38:33;;;;;;;7.93;2.63;;;14.70;99.90;;;;;;5012433;28;20389;-71
2023/10/10 02:46:35;;;;;;;10.13;3.05;;;14.60;99.90;;;;;;5031769;28;20892;-71
2023/10/10 02:49:09;;;;;;;8.85;2.30;;;14.60;99.90;;;;;;5032038;28;20406;-71
2023/10/10 02:51:36;;;;;;;9.63;3.03;;;14.60;1.00;;;;;;5031325;28;20395;-71
2023/10/10 02:54:10;;;;;;;8.70;2.15;;;14.60;1.00;;;;;;5031439;28;20381;-71
2023/10/10 02:56:43;;;;;;;14.50;2.92;;;14.60;99.90;;;;;;5031557;28;20415;-71
2023/10/10 02:59:09;;;;;;;7.90;2.40;;;14.50;99.90;;;;;;5031781;28;20757;-71
2023/10/10 03:04:22;;;;;;;6.47;2.28;;;14.50;99.90;;;;;;5030924;28;20395;-71
2023/10/10 03:06:48;;;;;;;16.05;3.45;;;14.40;1.00;;;;;;5031279;28;20387;-71
2023/10/10 03:09:38;;;;;;;12.15;3.20;;;14.30;98.60;;;;;;5031046;28;20399;-71
2023/10/10 03:12:05;;;;;;;12.30;3.63;;;14.30;27.80;;;;;;5011799;28;20393;-71
2023/10/10 03:14:33;;;;;;;9.53;3.20;;;14.30;75.40;;;;;;5011589;28;20381;-71
2023/10/10 03:17:03;;;;;;;9.40;2.72;;;14.20;99.90;;;;;;5010125;28;20422;-71
2023/10/10 03:19:37;;;;;;;12.60;2.55;;;14.10;99.90;;;;;;5027762;28;20820;-71
2023/10/10 03:22:30;;;;;;;10.80;3.03;;;14.10;1.00;;;;;;5048026;28;20428;-71
2023/10/10 03:25:09;;;;;;;9.13;3.20;;;14.10;1.00;;;;;;5043099;28;20379;-71
2023/10/10 03:33:07;;;;;;;12.88;3.08;;;14.00;1.00;;;;;;5031279;28;20445;-71
2023/10/10 03:35:51;;;;;;;14.13;2.90;;;14.00;1.00;;;;;;5028127;28;20419;-71
2023/10/10 05:25:13;;;;;;;9.70;3.10;;;13.10;99.90;;;;;;5027846;28;20401;-71
2023/10/10 05:27:41;;;;;;;9.25;2.80;;;13.20;99.90;;;;;;5029126;28;20756;-72
2023/10/10 05:30:19;;;;;;;13.02;3.38;;;13.20;99.90;;;;;;5029216;28;20429;-71
2023/10/10 05:33:00;;;;;;;12.97;3.30;;;13.40;99.90;;;;;;5029037;28;20493;-71
2023/10/10 05:35:37;;;;;;;17.70;3.60;;;13.40;99.90;;;;;;5029563;28;20395;-71
2023/10/10 05:38:04;;;;;;;12.02;2.42;;;13.40;99.90;;;;;;5028889;28;20402;-71
2023/10/10 05:40:33;;;;;;;11.48;3.38;;;13.30;99.90;;;;;;5029083;28;20430;-71
2023/10/10 05:42:59;;;;;;;8.97;3.63;;;13.20;99.90;;;;;;5029721;28;20421;-71
2023/10/10 05:45:25;;;;;;;9.63;3.28;;;13.20;99.90;;;;;;5028247;28;20415;-71
2023/10/10 05:47:51;;;;;;;11.00;3.70;;;13.20;99.90;;;;;;5028735;28;20445;-71
2023/10/10 05:50:18;;;;;;;12.30;3.00;;;13.30;99.90;;;;;;5028801;28;20391;-71
2023/10/10 05:52:44;;;;;;;12.40;2.47;;;13.30;99.90;;;;;;5029062;28;20385;-71
2023/10/10 05:55:10;;;;;;;11.20;3.40;;;13.30;99.90;;;;;;5028629;28;20395;-71
2023/10/10 05:57:36;;;;;;;7.80;3.15;;;13.30;99.90;;;;;;5029013;28;20887;-71
2023/10/10 06:00:10;;;;;;;7.30;2.10;;;13.40;99.90;;;;;;5030555;28;20402;-71
2023/10/10 06:02:45;;;;;;;12.50;2.50;;;13.60;99.90;;;;;;5032760;28;20391;-71
2023/10/10 06:05:15;;;;;;;12.63;2.85;;;13.70;99.90;;;;;;5030278;28;20426;-71
2023/10/10 06:07:43;;;;;;;10.43;2.93;;;14.00;99.90;;;;;;5024107;28;20512;-71
2023/10/10 06:10:18;;;;;;;9.60;3.40;;;14.20;1.00;;;;;;5012152;28;20392;-71
2023/10/10 06:12:48;;;;;;;8.65;3.00;;;14.30;1.00;;;;;;5012691;28;20459;-71
2023/10/10 06:15:17;;;;;;;14.85;3.95;;;14.60;99.90;;;;;;5012464;28;20913;-72
2023/10/10 06:17:57;;;;;;;8.23;3.28;;;14.70;99.90;;;;;;5011187;28;20495;-71
2023/10/10 06:20:23;;;;;;;8.60;2.40;;;14.90;1.00;;;;;;5010990;28;20425;-71
2023/10/10 06:22:49;;;;;;;9.05;3.00;;;15.10;1.00;;;;;;5012224;28;20404;-72
2023/10/10 06:25:18;;;;;;;8.05;3.08;;;15.20;99.90;;;;;;5012385;28;20911;-71
2023/10/10 06:27:57;;;;;;;11.70;2.90;;;15.40;99.90;;;;;;5019431;28;20755;-71
2023/10/10 06:30:24;;;;;;;11.18;4.25;;;15.80;99.90;;;;;;5019258;28;20401;-71
2023/10/10 06:32:50;;;;;;;12.73;3.67;;;16.40;1.00;;;;;;5020971;28;20393;-71
2023/10/10 06:37:52;;;;;;;13.50;3.03;;;17.50;1.00;;;;;;5020651;28;20393;-71
2023/10/10 06:40:24;;;;;;;9.90;3.60;;;18.00;99.90;;;;;;5016470;28;20873;-72
2023/10/10 06:42:54;;;;;;;13.23;3.00;;;18.10;99.90;;;;;;5011905;28;20401;-72
2023/10/10 06:45:22;;;;;;;10.65;3.60;;;18.30;54.50;;;;;;5012072;28;20491;-72
2023/10/10 06:47:50;;;;;;;15.65;3.50;;;18.40;18.30;;;;;;5012229;28;20451;-72
2023/10/10 06:50:21;;;;;;;10.90;3.95;;;18.70;1.00;;;;;;5012241;28;20431;-72
2023/10/10 06:52:54;;;;;;;17.60;3.15;;;18.90;1.00;;;;;;5011679;28;20405;-72
2023/10/10 06:55:24;;;;;;;9.77;3.60;;;19.20;1.00;;;;;;5011798;28;20411;-72
2023/10/10 06:57:58;;;;;;;10.07;2.80;;;19.10;1.00;;;;;;5011821;28;20393;-73
2023/10/10 07:00:28;;;;;;;8.73;3.20;;;19.70;1.00;;;;;;5011740;28;20987;-73
2023/10/10 07:02:58;;;;;;;10.35;2.92;;;20.50;1.00;;;;;;5011548;28;20849;-73
2023/10/10 07:05:27;;;;;;;8.55;2.78;;;21.00;1.00;;;;;;5011162;28;20417;-73
2023/10/10 07:08:01;;;;;;;10.87;3.70;;;21.40;1.00;;;;;;5011337;28;20480;-73
2023/10/10 07:10:33;;;;;;;13.65;3.80;;;21.70;1.00;;;;;;5011708;28;20396;-73
2023/10/10 07:12:59;;;;;;;14.47;3.90;;;21.70;1.00;;;;;;5011864;28;20730;-73
2023/10/10 07:15:34;;;;;;;10.50;3.75;;;22.40;99.90;;;;;;5010124;28;20826;-72
2023/10/10 07:18:08;;;;;;;11.73;3.97;;;23.40;99.90;;;;;;5011818;28;20400;-72
2023/10/10 07:23:20;;;;;;;10.97;3.90;;;24.30;99.90;;;;;;5010904;28;20439;-72
2023/10/10 07:26:04;;;;;;;23.52;5.72;;;24.80;99.90;;;;;;5011656;28;20455;-73
2023/10/10 07:28:36;;;;;;;16.83;4.30;;;25.10;99.90;;;;;;4996688;28;20505;-72
2023/10/10 07:31:02;;;;;;;10.77;3.90;;;25.50;99.90;;;;;;5011137;28;20487;-72
2023/10/10 07:33:40;;;;;;;22.10;5.75;;;25.70;99.90;;;;;;5011653;28;20405;-72
2023/10/10 07:36:06;;;;;;;14.40;4.15;;;26.70;99.90;;;;;;5011118;28;20397;-72
2023/10/10 07:38:35;;;;;;;16.13;4.00;;;27.10;99.90;;;;;;5010830;28;20460;-72
2023/10/10 07:41:04;;;;;;;15.88;3.58;;;27.40;99.90;;;;;;5011336;28;20456;-72
2023/10/10 07:43:34;;;;;;;12.48;4.55;;;27.50;99.90;;;;;;5011607;28;20480;-72
2023/10/10 07:46:12;;;;;;;12.65;3.50;;;27.80;99.90;;;;;;5011422;28;20395;-72
2023/10/10 07:48:39;;;;;;;11.18;3.50;;;28.00;99.90;;;;;;5010758;28;20969;-72
2023/10/10 07:51:08;;;;;;;12.17;4.00;;;27.80;99.90;;;;;;5010373;28;20816;-72
2023/10/10 07:53:41;;;;;;;13.55;4.60;;;27.80;99.90;;;;;;5010404;28;20875;-72
2023/10/10 07:56:07;;;;;;;13.80;3.63;;;27.60;99.90;;;;;;5010648;28;20389;-72
2023/10/10 07:58:49;;;;;;;11.00;3.20;;;27.50;99.90;;;;;;5010512;28;20450;-72
2023/10/10 08:01:17;;;;;;;14.07;4.00;;;27.50;99.90;;;;;;5010432;28;20421;-72
2023/10/10 08:03:46;;;;;;;13.50;3.70;;;27.00;99.90;;;;;;5010493;28;20428;-72
2023/10/10 08:06:18;;;;;;;10.50;3.60;;;27.30;99.90;;;;;;5008155;28;20435;-72
2023/10/10 08:09:09;;;;;;;9.02;3.15;;;27.30;99.90;;;;;;5010179;28;20439;-72
2023/10/10 08:11:35;;;;;;;12.80;3.70;;;27.30;99.90;;;;;;5010135;28;20405;-72
2023/10/10 08:14:05;;;;;;;8.82;3.28;;;27.60;99.90;;;;;;5010388;28;20396;-72
2023/10/10 08:16:33;;;;;;;15.83;3.90;;;27.60;99.90;;;;;;5010301;28;20389;-72
2023/10/10 08:19:04;;;;;;;9.20;3.45;;;28.30;99.90;;;;;;5010667;28;20392;-72
2023/10/10 08:21:36;;;;;;;13.98;3.10;;;28.50;99.90;;;;;;5010261;28;21056;-72
2023/10/10 08:24:03;;;;;;;12.23;4.00;;;28.10;99.90;;;;;;5009607;28;20397;-72
2023/10/10 08:26:29;;;;;;;13.77;3.80;;;27.60;99.90;;;;;;5010803;28;20385;-72
2023/10/10 08:28:55;;;;;;;9.65;3.55;;;27.80;99.90;;;;;;5009919;28;20456;-72
2023/10/10 08:31:22;;;;;;;13.00;3.53;;;27.90;99.90;;;;;;5008386;28;21339;-72
2023/10/10 08:33:49;;;;;;;11.25;3.50;;;27.80;99.90;;;;;;5008870;28;20388;-72
2023/10/10 08:36:23;;;;;;;8.80;3.60;;;28.10;99.90;;;;;;5009010;28;20926;-72
2023/10/10 08:38:50;;;;;;;11.18;4.00;;;28.70;99.90;;;;;;5009797;28;20471;-72
2023/10/10 08:41:26;;;;;;;9.27;3.17;;;29.50;99.90;;;;;;5009252;28;21284;-72
2023/10/10 08:43:57;;;;;;;10.18;3.80;;;29.40;99.90;;;;;;5009578;28;20392;-72
2023/10/10 08:46:29;;;;;;;11.23;3.60;;;29.70;99.90;;;;;;5009970;28;20836;-72
2023/10/10 08:49:00;;;;;;;10.20;3.53;;;30.20;99.90;;;;;;5009488;28;20404;-73
2023/10/10 08:51:34;;;;;;;12.65;3.33;;;30.90;99.90;;;;;;5010304;28;20392;-72
2023/10/10 08:54:10;;;;;;;10.35;3.50;;;30.60;99.90;;;;;;5010512;28;20376;-72
2023/10/10 08:56:43;;;;;;;12.95;4.22;;;30.60;99.90;;;;;;5010152;28;20483;-72
2023/10/10 08:59:11;;;;;;;14.38;3.50;;;30.60;99.90;;;;;;5009485;28;20396;-72
2023/10/10 09:01:37;;;;;;;17.67;4.07;;;31.50;99.90;;;;;;5009539;28;20424;-72
2023/10/10 09:04:05;;;;;;;13.40;3.70;;;31.70;99.90;;;;;;5009446;28;20420;-72
2023/10/10 09:06:51;;;;;;;12.37;3.90;;;32.10;99.90;;;;;;5010508;28;20416;-72
2023/10/10 09:09:37;;;;;;;10.40;3.20;;;32.30;99.90;;;;;;5008394;28;20429;-72
2023/10/10 09:12:04;;;;;;;10.63;3.40;;;32.30;99.90;;;;;;5009650;28;20446;-72
2023/10/10 09:14:49;;;;;;;9.55;3.05;;;31.60;99.90;;;;;;5009746;28;20411;-72
2023/10/10 09:17:28;;;;;;;12.23;3.60;;;31.20;99.90;;;;;;5008975;28;20409;-72
2023/10/10 09:19:54;;;;;;;17.30;3.60;;;31.70;99.90;;;;;;5009512;28;20385;-72
2023/10/10 09:22:34;;;;;;;11.85;3.20;;;32.00;99.90;;;;;;5009828;28;20433;-72
2023/10/10 09:25:17;;;;;;;9.68;3.00;;;31.70;99.90;;;;;;5010138;28;20758;-72
2023/10/10 09:27:57;;;;;;;10.77;2.80;;;32.60;99.90;;;;;;5009337;28;20885;-72
2023/10/10 09:30:31;;;;;;;11.27;2.97;;;32.20;99.90;;;;;;5009451;28;20403;-72
2023/10/10 09:33:00;;;;;;;13.65;4.10;;;31.40;99.90;;;;;;5009673;28;20447;-72
2023/10/10 09:35:28;;;;;;;10.48;2.78;;;31.40;99.90;;;;;;5011712;28;20401;-72
2023/10/10 09:37:57;;;;;;;17.48;3.10;;;31.30;99.90;;;;;;5013175;28;20400;-72
2023/10/10 09:40:24;;;;;;;15.13;3.40;;;31.20;99.90;;;;;;5012899;28;20392;-72
2023/10/10 09:43:03;;;;;;;16.33;3.50;;;31.20;99.90;;;;;;5013285;28;20388;-72
2023/10/10 09:48:28;;;;;;;16.67;4.00;;;31.00;99.90;;;;;;5013097;28;20396;-72
2023/10/10 09:51:30;;;;;;;10.05;2.95;;;32.30;99.90;;;;;;5013848;28;20988;-71
2023/10/10 09:54:15;;;;;;;9.70;2.60;;;32.40;99.90;;;;;;5013313;28;20882;-72
2023/10/10 09:56:46;;;;;;;8.43;2.65;;;32.60;99.90;;;;;;5012854;28;20523;-72
2023/10/10 09:59:14;;;;;;;10.02;3.10;;;32.00;99.90;;;;;;5012752;28;20839;-72
2023/10/10 10:01:45;;;;;;;14.13;2.90;;;31.40;99.90;;;;;;5012858;28;20417;-72
2023/10/10 10:04:18;;;;;;;12.90;3.40;;;31.30;99.90;;;;;;5012760;28;20953;-72
2023/10/10 10:06:51;;;;;;;11.43;3.40;;;31.30;99.90;;;;;;5012727;28;20833;-72
2023/10/10 10:09:32;;;;;;;15.57;4.18;;;30.60;99.90;;;;;;5012804;28;20401;-72
2023/10/10 10:12:30;;;;;;;10.27;2.83;;;30.70;99.90;;;;;;5013362;28;20415;-73
2023/10/10 10:15:20;;;;;;;10.70;3.20;;;31.30;99.90;;;;;;5013515;28;20855;-73
2023/10/10 10:17:48;;;;;;;11.30;2.77;;;32.00;99.90;;;;;;5012407;28;20396;-73
2023/10/10 10:20:48;;;;;;;11.02;2.38;;;32.30;99.90;;;;;;5012688;28;20400;-73
2023/10/10 10:23:27;;;;;;;9.02;2.70;;;32.60;99.90;;;;;;5035542;28;20401;-73
2023/10/10 10:25:55;;;;;;;10.45;2.80;;;32.10;99.90;;;;;;5035247;28;20376;-73
2023/10/10 10:28:28;;;;;;;11.23;2.55;;;31.70;99.90;;;;;;5019332;28;20498;-73
2023/10/10 10:30:54;;;;;;;10.00;2.80;;;31.60;99.90;;;;;;5013778;28;20405;-73
2023/10/10 10:33:24;;;;;;;9.15;2.70;;;31.30;99.90;;;;;;5014149;28;20455;-73
2023/10/10 10:36:14;;;;;;;10.35;3.42;;;31.50;99.90;;;;;;5011995;28;20447;-73
2023/10/10 10:38:59;;;;;;;9.57;3.58;;;32.10;99.90;;;;;;5011950;28;20400;-73
2023/10/10 10:41:41;;;;;;;11.53;3.20;;;32.20;99.90;;;;;;5011618;28;20428;-73
2023/10/10 10:44:09;;;;;;;13.63;3.65;;;32.60;99.90;;;;;;5012232;28;20404;-73
2023/10/10 10:46:39;;;;;;;10.88;3.08;;;32.30;99.90;;;;;;5010970;28;20405;-73
2023/10/10 10:49:07;;;;;;;10.77;3.05;;;31.80;99.90;;;;;;5012044;28;20396;-73
2023/10/10 10:51:41;;;;;;;9.40;2.72;;;31.40;99.90;;;;;;5011683;28;20389;-73
2023/10/10 10:54:08;;;;;;;9.75;2.70;;;30.80;99.90;;;;;;5014584;28;20396;-73
2023/10/10 10:59:19;;;;;;;9.23;2.78;;;31.30;99.90;;;;;;5012023;28;20401;-73
2023/10/10 11:01:57;;;;;;;9.60;2.50;;;32.10;99.90;;;;;;5011199;28;20516;-73
2023/10/10 11:04:40;;;;;;;8.53;2.77;;;31.80;99.90;;;;;;5011339;28;20460;-73
2023/10/10 11:07:07;;;;;;;9.70;2.80;;;32.00;99.90;;;;;;5011592;28;20417;-73
2023/10/10 11:09:36;;;;;;;9.43;2.35;;;31.80;99.90;;;;;;5011512;28;20381;-73
2023/10/10 11:12:05;;;;;;;11.48;2.78;;;31.70;99.90;;;;;;5014664;28;20388;-73
2023/10/10 11:14:33;;;;;;;9.02;3.03;;;31.10;99.90;;;;;;5033276;28;20473;-72
2023/10/10 11:16:58;;;;;;;8.27;3.00;;;30.80;99.90;;;;;;5031501;28;20391;-73
2023/10/10 11:19:46;;;;;;;11.40;3.20;;;30.40;99.90;;;;;;5031279;28;20406;-73
2023/10/10 11:22:38;;;;;;;9.37;3.47;;;29.90;99.90;;;;;;5028913;28;20435;-73
2023/10/10 11:25:04;;;;;;;9.60;3.27;;;29.60;99.90;;;;;;5030543;28;20780;-73
2023/10/10 11:27:33;;;;;;;10.90;2.90;;;29.40;99.90;;;;;;5030944;28;20406;-72
2023/10/10 11:30:07;;;;;;;8.52;2.30;;;29.00;99.90;;;;;;5030334;28;20425;-72
2023/10/10 11:32:45;;;;;;;8.10;2.70;;;28.60;99.90;;;;;;5033683;28;20426;-73
2023/10/10 11:35:17;;;;;;;9.48;2.60;;;28.30;99.90;;;;;;5022370;28;20551;-72
2023/10/10 11:37:48;;;;;;;11.00;3.28;;;28.20;99.90;;;;;;5022738;28;20439;-73
2023/10/10 11:40:31;;;;;;;7.70;2.85;;;28.40;99.90;;;;;;5021114;28;20919;-72
2023/10/10 11:43:03;;;;;;;11.85;2.30;;;28.50;99.90;;;;;;5022205;28;20429;-73
2023/10/10 11:45:30;;;;;;;11.65;2.63;;;28.30;99.90;;;;;;5024659;28;20426;-72
2023/10/10 11:48:00;;;;;;;9.63;2.35;;;28.30;99.90;;;;;;5021244;28;20756;-73
2023/10/10 11:50:45;;;;;;;9.40;2.55;;;28.10;99.90;;;;;;5021846;28;20451;-72
2023/10/10 11:53:19;;;;;;;11.63;2.83;;;28.00;99.90;;;;;;5025578;28;20516;-72
2023/10/10 11:55:45;;;;;;;8.23;2.63;;;28.20;99.90;;;;;;5023362;28;20390;-72
2023/10/10 11:58:16;;;;;;;13.50;3.38;;;28.50;99.90;;;;;;5020674;28;20414;-72
2023/10/10 12:00:59;;;;;;;8.82;2.85;;;28.40;99.90;;;;;;5023156;28;20443;-72
2023/10/10 12:03:43;;;;;;;8.05;2.50;;;28.60;99.90;;;;;;5021142;28;20488;-72
2023/10/10 12:06:26;;;;;;;13.00;2.83;;;28.50;99.90;;;;;;5023037;28;20651;-72
2023/10/10 12:08:53;;;;;;;11.38;3.17;;;28.10;99.90;;;;;;5023614;28;20549;-72
2023/10/10 12:11:21;;;;;;;13.48;2.72;;;27.90;99.90;;;;;;5024301;28;20410;-70
2023/10/10 12:13:50;;;;;;;10.05;3.17;;;27.90;99.90;;;;;;5028993;28;21008;-70
2023/10/10 12:16:17;;;;;;;11.30;3.45;;;27.70;99.90;;;;;;5028917;28;20387;-71
2023/10/10 12:18:44;;;;;;;12.40;4.10;;;27.80;99.90;;;;;;5028859;28;20418;-71
2023/10/10 12:21:15;;;;;;;12.90;3.20;;;27.80;99.90;;;;;;5029377;28;20411;-71
2023/10/10 12:23:41;;;;;;;8.60;2.50;;;27.60;99.90;;;;;;5029779;28;20414;-71
2023/10/10 12:26:09;;;;;;;10.13;2.63;;;27.60;99.90;;;;;;5028379;28;20765;-71
2023/10/10 12:28:35;;;;;;;10.00;3.15;;;27.60;99.90;;;;;;5035053;28;20405;-71
2023/10/10 12:31:03;;;;;;;10.97;2.90;;;27.70;99.90;;;;;;5045750;28;20768;-71
2023/10/10 12:33:29;;;;;;;11.43;2.58;;;27.50;99.90;;;;;;5030592;28;20387;-71
2023/10/10 12:35:56;;;;;;;12.43;3.95;;;27.50;99.90;;;;;;5035275;28;20886;-71
2023/10/10 12:38:22;;;;;;;9.25;2.42;;;27.70;99.90;;;;;;5049413;28;20404;-71
2023/10/10 12:40:48;;;;;;;17.30;3.78;;;28.00;99.90;;;;;;5049263;28;20814;-71
2023/10/10 12:43:14;;;;;;;10.65;3.30;;;28.00;99.90;;;;;;5049445;28;20428;-71
2023/10/10 12:45:41;;;;;;;16.07;3.20;;;28.10;99.90;;;;;;5049351;28;20390;-71
2023/10/10 12:48:13;;;;;;;11.13;3.20;;;28.10;99.90;;;;;;5049427;28;20419;-71
2023/10/10 12:50:44;;;;;;;17.30;3.80;;;27.90;99.90;;;;;;5047813;28;20437;-71
2023/10/10 12:53:15;;;;;;;19.40;4.78;;;28.20;99.90;;;;;;5049528;28;20871;-71
2023/10/10 12:56:01;;;;;;;9.52;2.47;;;28.00;99.90;;;;;;5049516;28;20820;-71
2023/10/10 12:58:30;;;;;;;7.60;2.33;;;27.90;99.90;;;;;;5049635;28;20413;-70
2023/10/10 13:00:57;;;;;;;7.80;2.47;;;28.00;99.90;;;;;;5043557;28;20924;-71
2023/10/10 13:03:27;;;;;;;12.63;3.45;;;27.90;99.90;;;;;;5046949;28;20389;-70
2023/10/10 13:06:00;;;;;;;9.48;2.83;;;27.90;99.90;;;;;;5033785;28;20407;-71
2023/10/10 13:08:39;;;;;;;13.65;2.75;;;27.90;99.90;;;;;;5049622;28;20472;-71
2023/10/10 13:11:17;;;;;;;11.07;2.50;;;28.20;99.90;;;;;;5051377;28;20450;-71
2023/10/10 13:13:56;;;;;;;12.88;4.00;;;28.10;99.90;;;;;;5053335;28;20393;-70
2023/10/10 13:16:37;;;;;;;12.48;3.15;;;28.00;99.90;;;;;;5042631;28;20881;-70
2023/10/10 13:19:06;;;;;;;10.43;2.72;;;27.80;99.90;;;;;;5033344;28;20485;-71
2023/10/10 13:21:35;;;;;;;9.80;3.30;;;28.00;99.90;;;;;;5033039;28;20430;-70
2023/10/10 13:24:01;;;;;;;11.35;2.90;;;28.00;99.90;;;;;;5033121;28;20391;-70
2023/10/10 13:26:31;;;;;;;10.43;2.78;;;27.70;99.90;;;;;;5033579;28;20379;-70
2023/10/10 13:28:57;;;;;;;9.10;3.10;;;27.40;99.90;;;;;;5033465;28;20405;-71
2023/10/10 13:31:24;;;;;;;9.48;2.90;;;27.40;99.90;;;;;;5032865;28;20945;-71
2023/10/10 13:33:50;;;;;;;10.25;2.80;;;27.50;99.90;;;;;;5032529;28;20442;-71
2023/10/10 13:36:16;;;;;;;7.35;2.30;;;27.50;99.90;;;;;;5032936;28;20474;-71
2023/10/10 13:38:47;;;;;;;13.60;3.40;;;27.60;99.90;;;;;;5032346;28;20482;-71
2023/10/10 13:41:19;;;;;;;11.32;3.47;;;27.70;99.90;;;;;;5032839;28;20423;-71
2023/10/10 13:43:49;;;;;;;8.20;2.25;;;27.70;99.90;;;;;;5032765;28;20746;-71
2023/10/10 13:46:18;;;;;;;12.57;2.70;;;27.40;99.90;;;;;;5033633;28;20383;-71
2023/10/10 13:48:43;;;;;;;10.93;2.73;;;27.10;99.90;;;;;;5032315;28;20821;-71
2023/10/10 13:51:09;;;;;;;7.47;2.65;;;27.00;99.90;;;;;;5032404;28;20522;-71
2023/10/10 13:53:37;;;;;;;9.17;2.60;;;26.90;99.90;;;;;;5031880;28;20395;-71
2023/10/10 13:56:05;;;;;;;16.70;3.45;;;27.00;99.90;;;;;;5032642;28;20452;-71
2023/10/10 13:58:34;;;;;;;11.73;3.50;;;26.90;99.90;;;;;;5032942;28;20379;-71
2023/10/10 14:01:18;;;;;;;15.17;3.60;;;26.90;99.90;;;;;;5034237;28;20533;-70
2023/10/10 14:03:48;;;;;;;13.60;3.00;;;26.90;99.90;;;;;;5034773;28;20402;-70
2023/10/10 14:06:22;;;;;;;10.45;3.53;;;27.00;99.90;;;;;;5034850;28;20429;-70
2023/10/10 14:08:48;;;;;;;9.65;2.50;;;27.10;99.90;;;;;;5032239;28;20403;-71
2023/10/10 14:11:20;;;;;;;13.15;3.17;;;27.00;99.90;;;;;;5045968;28;20759;-70
2023/10/10 14:13:55;;;;;;;10.63;2.55;;;26.80;99.90;;;;;;5052177;28;20401;-70
2023/10/10 14:16:23;;;;;;;10.43;3.90;;;26.70;99.90;;;;;;5042272;28;20918;-71
2023/10/10 14:18:52;;;;;;;11.57;3.08;;;26.70;99.90;;;;;;5052526;28;20389;-71
2023/10/10 14:21:24;;;;;;;13.07;3.22;;;26.80;99.90;;;;;;5040662;28;20423;-71
2023/10/10 14:24:04;;;;;;;11.20;3.20;;;26.90;99.90;;;;;;5033364;28;20463;-70
2023/10/10 14:26:33;;;;;;;11.60;3.60;;;26.90;99.90;;;;;;5032625;28;20471;-70
2023/10/10 14:29:04;;;;;;;10.55;3.30;;;26.80;99.90;;;;;;5033228;28;20387;-70
2023/10/10 14:31:33;;;;;;;12.82;2.50;;;26.80;99.90;;;;;;5032639;28;20407;-71
2023/10/10 14:34:00;;;;;;;9.57;2.70;;;26.80;99.90;;;;;;5032209;28;20396;-71
2023/10/10 14:36:30;;;;;;;12.33;3.57;;;26.70;99.90;;;;;;5031659;28;20421;-70
2023/10/10 14:38:57;;;;;;;11.38;2.97;;;26.70;99.90;;;;;;5031630;28;20383;-70
2023/10/10 14:41:24;;;;;;;13.20;3.50;;;26.70;99.90;;;;;;5031418;28;20427;-71
2023/10/10 14:43:51;;;;;;;16.65;8.43;;;26.60;99.90;;;;;;5030080;28;20417;-71
2023/10/10 14:46:21;;;;;;;11.00;3.40;;;26.50;99.90;;;;;;5031519;28;20437;-71
2023/10/10 14:49:41;;;;;;;9.13;2.65;;;26.30;99.90;;;;;;5031574;28;20869;-71
2023/10/10 14:51:40;;;;;;;10.40;3.03;;;26.20;99.90;;;;;;5027136;28;20879;-71
2023/10/10 14:54:17;;;;;;;7.75;2.58;;;26.10;99.90;;;;;;5031230;28;20474;-71
2023/10/10 14:56:46;;;;;;;8.98;3.03;;;26.00;99.90;;;;;;5031278;28;20399;-71
2023/10/10 14:59:17;;;;;;;8.88;3.03;;;25.90;99.90;;;;;;5031271;28;20402;-71
2023/10/10 15:01:50;;;;;;;8.45;3.05;;;25.80;99.90;;;;;;5031432;28;20419;-71
2023/10/10 15:04:21;;;;;;;15.20;3.03;;;25.70;99.90;;;;;;5031826;28;20406;-71
2023/10/10 15:06:48;;;;;;;8.85;2.17;;;25.60;99.90;;;;;;5030833;28;20537;-71
2023/10/10 15:09:23;;;;;;;9.50;2.72;;;25.60;99.90;;;;;;5030992;28;20395;-71
2023/10/10 15:11:51;;;;;;;11.82;2.83;;;25.50;99.90;;;;;;5031173;28;20418;-71
2023/10/10 15:14:19;;;;;;;11.15;2.83;;;25.40;99.90;;;;;;5031228;28;20391;-71
2023/10/10 15:16:49;;;;;;;10.48;2.90;;;25.40;99.90;;;;;;5030786;28;20402;-72